createdAt,value
2019-01-25T00:01:33.567Z,112.13
2019-01-25T00:04:01.297Z,101.43
2019-01-25T00:06:28.795Z,107.00
2019-01-25T00:08:56.292Z,106.23
2019-01-25T00:11:23.916Z,116.83
2019-01-25T00:13:51.457Z,119.37
2019-01-25T00:16:18.926Z,116.03
2019-01-25T00:18:46.448Z,124.27
2019-01-25T00:21:13.961Z,119.73
2019-01-25T00:23:41.476Z,109.07
2019-01-25T00:26:08.955Z,123.83
2019-01-25T00:28:36.469Z,111.87
2019-01-25T00:31:04.288Z,112.30
2019-01-25T00:33:31.770Z,119.67
2019-01-25T00:35:59.253Z,123.17
2019-01-25T00:38:26.731Z,122.50
2019-01-25T00:40:54.207Z,104.60
2019-01-25T00:43:21.705Z,123.77
2019-01-25T00:45:49.218Z,113.60
2019-01-25T00:48:16.744Z,106.57
2019-01-25T00:50:44.240Z,113.70
2019-01-25T00:53:11.728Z,114.93
2019-01-25T00:55:39.353Z,121.87
2019-01-25T00:58:06.811Z,114.10
2019-01-25T01:00:34.175Z,122.27
2019-01-25T01:03:01.692Z,113.40
2019-01-25T01:05:29.153Z,118.53
2019-01-25T01:07:56.768Z,131.20
2019-01-25T01:10:24.268Z,119.10
2019-01-25T01:12:52.039Z,122.33
2019-01-25T01:15:19.642Z,118.47
2019-01-25T01:17:47.229Z,121.20
2019-01-25T01:20:16.087Z,117.40
2019-01-25T01:22:43.856Z,114.63
2019-01-25T01:25:12.523Z,111.97
2019-01-25T01:27:40.021Z,107.27
2019-01-25T01:30:14.346Z,108.50
2019-01-25T01:32:41.847Z,107.10
2019-01-25T01:35:09.215Z,119.63
2019-01-25T01:37:36.684Z,112.80
2019-01-25T01:40:09.052Z,118.73
2019-01-25T01:42:36.530Z,124.97
2019-01-25T01:45:05.257Z,122.50
2019-01-25T01:47:32.753Z,114.73
2019-01-25T01:50:00.256Z,109.90
2019-01-25T01:52:27.749Z,118.17
2019-01-25T01:54:55.244Z,112.10
2019-01-25T01:57:22.750Z,117.90
2019-01-25T01:59:50.243Z,117.80
2019-01-25T02:02:17.708Z,116.50
2019-01-25T02:04:45.280Z,118.90
2019-01-25T02:07:12.740Z,116.47
2019-01-25T02:09:40.253Z,111.63
2019-01-25T02:12:07.772Z,121.80
2019-01-25T02:14:35.473Z,119.17
2019-01-25T02:17:02.962Z,118.40
2019-01-25T02:19:30.492Z,112.70
2019-01-25T02:21:58.010Z,116.17
2019-01-25T02:24:25.489Z,125.37
2019-01-25T02:26:53.017Z,114.23
2019-01-25T02:29:20.505Z,126.00
2019-01-25T02:31:47.980Z,119.00
2019-01-25T02:34:15.477Z,118.93
2019-01-25T02:36:42.942Z,116.50
2019-01-25T02:39:10.537Z,109.60
2019-01-25T02:41:38.084Z,119.57
2019-01-25T02:44:05.553Z,118.47
2019-01-25T02:46:33.046Z,120.07
2019-01-25T02:49:00.529Z,116.10
2019-01-25T02:51:28.030Z,130.87
2019-01-25T02:53:55.567Z,121.90
2019-01-25T02:56:23.100Z,112.83
2019-01-25T02:58:50.557Z,112.30
2019-01-25T03:01:18.027Z,113.10
2019-01-25T03:03:45.504Z,121.33
2019-01-25T03:06:12.966Z,106.57
2019-01-25T03:08:40.471Z,113.43
2019-01-25T03:11:08.891Z,129.60
2019-01-25T03:13:36.357Z,111.43
2019-01-25T03:16:04.236Z,119.27
2019-01-25T03:18:31.689Z,116.50
2019-01-25T03:20:59.148Z,110.60
2019-01-25T03:23:26.660Z,109.47
2019-01-25T03:25:54.171Z,102.83
2019-01-25T03:28:21.668Z,112.57
2019-01-25T03:30:49.192Z,115.17
2019-01-25T03:33:16.685Z,115.80
2019-01-25T03:35:44.349Z,121.97
2019-01-25T03:38:11.708Z,111.10
2019-01-25T03:40:39.202Z,103.30
2019-01-25T03:43:06.732Z,107.57
2019-01-25T03:45:34.243Z,116.87
2019-01-25T03:48:01.766Z,117.20
2019-01-25T03:50:29.781Z,114.77
2019-01-25T03:52:57.248Z,115.53
2019-01-25T03:55:25.393Z,116.20
2019-01-25T03:57:53.084Z,109.70
2019-01-25T04:00:22.358Z,112.93
2019-01-25T04:02:49.923Z,111.07
2019-01-25T04:05:17.580Z,122.73
2019-01-25T04:07:45.506Z,104.33
2019-01-25T04:10:15.226Z,112.17
2019-01-25T04:12:42.727Z,121.10
2019-01-25T04:15:13.268Z,117.10
2019-01-25T04:17:40.779Z,104.23
2019-01-25T04:20:10.169Z,108.60
2019-01-25T04:22:37.693Z,110.37
2019-01-25T04:25:07.234Z,100.40
2019-01-25T04:27:34.749Z,110.57
2019-01-25T04:30:02.271Z,111.50
2019-01-25T04:32:29.747Z,106.77
2019-01-25T04:34:57.261Z,103.83
2019-01-25T04:37:24.772Z,116.97
2019-01-25T04:39:52.249Z,108.03
2019-01-25T04:42:19.729Z,98.47
2019-01-25T04:44:47.263Z,98.90
2019-01-25T04:47:16.583Z,111.13
2019-01-25T04:49:44.136Z,114.50
2019-01-25T04:52:12.641Z,98.67
2019-01-25T04:54:40.105Z,105.80
2019-01-25T04:57:07.591Z,112.17
2019-01-25T04:59:35.096Z,100.13
2019-01-25T05:02:02.619Z,97.43
2019-01-25T05:04:35.160Z,113.23
2019-01-25T05:07:02.792Z,109.73
2019-01-25T05:09:30.310Z,110.50
2019-01-25T05:11:57.797Z,109.30
2019-01-25T05:14:27.070Z,93.07
2019-01-25T05:16:54.599Z,110.90
2019-01-25T05:19:22.066Z,115.83
2019-01-25T05:21:49.826Z,107.20
2019-01-25T05:24:17.331Z,115.43
2019-01-25T05:26:44.789Z,111.63
2019-01-25T05:29:12.368Z,112.07
2019-01-25T05:31:39.833Z,107.40
2019-01-25T05:34:07.337Z,118.63
2019-01-25T05:36:34.799Z,108.80
2019-01-25T05:39:04.401Z,113.37
2019-01-25T05:41:31.899Z,95.53
2019-01-25T05:43:59.407Z,111.20
2019-01-25T05:46:26.897Z,112.37
2019-01-25T05:48:54.356Z,104.03
2019-01-25T05:51:21.834Z,111.60
2019-01-25T05:53:50.619Z,112.30
2019-01-25T05:56:18.096Z,108.50
2019-01-25T05:58:45.895Z,114.87
2019-01-25T06:01:13.372Z,112.50
2019-01-25T06:03:40.842Z,108.80
2019-01-25T06:06:08.334Z,112.70
2019-01-25T06:08:43.633Z,109.90
2019-01-25T06:11:09.270Z,113.30
2019-01-25T06:13:37.492Z,112.23
2019-01-25T06:16:05.538Z,116.27
2019-01-25T06:18:33.036Z,116.53
2019-01-25T06:21:00.638Z,125.13
2019-01-25T06:23:28.118Z,114.93
2019-01-25T06:25:57.172Z,117.27
2019-01-25T06:28:25.010Z,117.20
2019-01-25T06:30:52.705Z,112.77
2019-01-25T06:33:20.237Z,108.73
2019-01-25T06:35:47.696Z,122.80
2019-01-25T06:38:15.416Z,114.60
2019-01-25T06:40:42.945Z,109.63
2019-01-25T06:43:10.419Z,100.10
2019-01-25T06:45:38.011Z,113.80
2019-01-25T06:48:05.719Z,118.70
2019-01-25T06:50:33.250Z,106.70
2019-01-25T06:53:00.735Z,116.43
2019-01-25T06:55:28.210Z,118.93
2019-01-25T06:58:02.762Z,118.33
2019-01-25T07:00:32.045Z,110.97
2019-01-25T07:02:59.625Z,108.03
2019-01-25T07:05:27.130Z,108.43
2019-01-25T07:07:54.669Z,110.47
2019-01-25T07:10:22.188Z,153.83
2019-01-25T07:12:49.730Z,107.10
2019-01-25T07:15:20.698Z,103.60
2019-01-25T07:17:48.212Z,102.70
2019-01-25T07:20:16.005Z,123.07
2019-01-25T07:22:43.532Z,119.93
2019-01-25T07:25:11.462Z,108.03
2019-01-25T07:27:39.039Z,107.27
2019-01-25T07:30:08.325Z,96.77
2019-01-25T07:32:35.805Z,106.17
2019-01-25T07:35:04.478Z,114.20
2019-01-25T07:37:31.971Z,100.63
2019-01-25T07:39:59.565Z,123.53
2019-01-25T07:42:27.234Z,118.90
2019-01-25T07:44:54.723Z,102.10
2019-01-25T07:47:22.397Z,98.63
2019-01-25T07:49:49.892Z,107.80
2019-01-25T07:52:17.400Z,100.33
2019-01-25T07:54:44.981Z,98.90
2019-01-25T07:57:12.439Z,104.93
2019-01-25T07:59:39.934Z,93.00
2019-01-25T08:02:07.448Z,104.27
2019-01-25T08:04:35.016Z,98.80
2019-01-25T08:07:02.513Z,99.53
2019-01-25T08:09:29.991Z,97.07
2019-01-25T08:11:57.711Z,95.30
2019-01-25T08:14:25.254Z,98.40
2019-01-25T08:16:52.741Z,101.00
2019-01-25T08:19:20.300Z,121.13
2019-01-25T08:21:47.816Z,93.23
2019-01-25T08:24:15.335Z,90.87
2019-01-25T08:26:42.852Z,94.00
2019-01-25T08:29:10.353Z,83.13
2019-01-25T08:31:37.950Z,87.03
2019-01-25T08:34:05.468Z,89.60
2019-01-25T08:36:32.980Z,78.83
2019-01-25T08:39:00.534Z,79.50
2019-01-25T08:41:28.062Z,79.17
2019-01-25T08:43:55.565Z,75.23
2019-01-25T08:46:23.091Z,74.67
2019-01-25T08:48:50.605Z,81.37
2019-01-25T08:51:18.158Z,79.77
2019-01-25T08:53:45.658Z,72.67
2019-01-25T08:56:13.141Z,74.33
2019-01-25T08:58:40.633Z,70.47
2019-01-25T09:01:08.430Z,69.60
2019-01-25T09:03:35.970Z,75.17
2019-01-25T09:06:03.444Z,74.33
2019-01-25T09:08:32.152Z,71.93
2019-01-25T09:10:59.609Z,79.83
2019-01-25T09:13:27.099Z,76.23
2019-01-25T09:15:54.627Z,70.13
2019-01-25T09:18:22.279Z,69.93
2019-01-25T09:20:50.386Z,69.37
2019-01-25T09:23:17.905Z,60.33
2019-01-25T09:25:45.364Z,66.87
2019-01-25T09:28:13.204Z,74.53
2019-01-25T09:30:40.688Z,74.10
2019-01-25T09:33:08.169Z,66.67
2019-01-25T09:35:35.708Z,68.40
2019-01-25T09:38:03.529Z,66.13
2019-01-25T09:40:31.435Z,74.73
2019-01-25T09:42:58.896Z,61.57
2019-01-25T09:45:26.366Z,61.90
2019-01-25T09:47:53.894Z,61.63
2019-01-25T09:50:21.429Z,68.80
2019-01-25T09:52:48.915Z,57.70
2019-01-25T09:55:18.475Z,62.03
2019-01-25T09:57:46.104Z,66.80
2019-01-25T10:00:19.993Z,72.13
2019-01-25T10:02:47.465Z,59.87
2019-01-25T10:05:14.975Z,57.03
2019-01-25T10:07:42.481Z,69.23
2019-01-25T10:10:10.283Z,56.23
2019-01-25T10:12:43.208Z,65.13
2019-01-25T10:15:09.675Z,64.43
2019-01-25T10:17:37.160Z,52.03
2019-01-25T10:20:04.998Z,63.50
2019-01-25T10:22:32.490Z,40.67
2019-01-25T10:25:00.033Z,61.70
2019-01-25T10:27:27.563Z,48.40
2019-01-25T10:29:55.062Z,53.77
2019-01-25T10:32:22.579Z,46.30
2019-01-25T10:34:50.079Z,65.30
2019-01-25T10:37:17.607Z,67.63
2019-01-25T10:39:45.077Z,71.40
2019-01-25T10:42:12.581Z,45.67
2019-01-25T10:44:40.056Z,61.20
2019-01-25T10:47:07.566Z,54.57
2019-01-25T10:49:35.052Z,74.10
2019-01-25T10:52:02.568Z,64.80
2019-01-25T10:54:30.175Z,54.17
2019-01-25T10:56:57.747Z,46.73
2019-01-25T10:59:25.250Z,66.00
2019-01-25T11:01:52.791Z,69.03
2019-01-25T11:04:20.321Z,63.60
2019-01-25T11:06:47.819Z,62.60
2019-01-25T11:09:15.382Z,57.13
2019-01-25T11:11:42.864Z,59.63
2019-01-25T11:14:10.372Z,57.40
2019-01-25T11:16:37.867Z,57.80
2019-01-25T11:19:05.348Z,52.90
2019-01-25T11:21:37.378Z,63.27
2019-01-25T11:24:02.134Z,58.07
2019-01-25T11:26:29.650Z,31.00
2019-01-25T11:28:57.165Z,57.30
2019-01-25T11:31:24.628Z,55.97
2019-01-25T11:33:52.500Z,64.93
2019-01-25T11:36:19.968Z,49.20
2019-01-25T11:38:47.439Z,43.70
2019-01-25T11:41:15.039Z,85.50
2019-01-25T11:43:42.550Z,84.23
2019-01-25T11:46:10.014Z,53.60
2019-01-25T11:48:37.515Z,99.80
2019-01-25T11:51:04.989Z,64.00
2019-01-25T11:53:32.475Z,63.23
2019-01-25T11:56:00.014Z,56.00
2019-01-25T11:58:27.531Z,50.87
2019-01-25T12:00:55.128Z,48.20
2019-01-25T12:03:22.548Z,49.23
2019-01-25T12:05:50.008Z,24.77
2019-01-25T12:08:17.612Z,52.23
2019-01-25T12:10:45.165Z,23.77
2019-01-25T12:13:16.204Z,49.33
2019-01-25T12:15:41.950Z,69.60
2019-01-25T12:18:09.481Z,33.23
2019-01-25T12:20:36.981Z,52.33
2019-01-25T12:23:04.665Z,54.17
2019-01-25T12:25:32.159Z,51.43
2019-01-25T12:27:59.654Z,49.97
2019-01-25T12:30:32.192Z,39.93
2019-01-25T12:32:59.668Z,53.43
2019-01-25T12:35:28.782Z,57.33
2019-01-25T12:37:56.259Z,50.47
2019-01-25T12:40:23.850Z,57.53
2019-01-25T12:42:51.301Z,58.93
2019-01-25T12:45:23.817Z,56.03
2019-01-25T12:47:51.800Z,59.23
2019-01-25T12:50:25.256Z,43.07
2019-01-25T12:52:52.748Z,65.60
2019-01-25T12:55:20.262Z,58.80
2019-01-25T12:57:47.747Z,50.63
2019-01-25T13:00:15.965Z,59.73
2019-01-25T13:02:43.461Z,28.70
2019-01-25T13:05:13.063Z,59.23
2019-01-25T13:07:40.515Z,57.43
2019-01-25T13:10:10.097Z,53.47
2019-01-25T13:12:37.582Z,40.63
2019-01-25T13:15:05.208Z,46.77
2019-01-25T13:17:32.707Z,55.23
2019-01-25T13:20:00.242Z,61.30
2019-01-25T13:22:27.752Z,63.77
2019-01-25T13:24:55.276Z,65.00
2019-01-25T13:27:22.755Z,60.17
2019-01-25T13:29:50.294Z,58.77
2019-01-25T13:32:17.769Z,46.70
2019-01-25T13:34:45.224Z,61.07
2019-01-25T13:37:12.790Z,54.57
2019-01-25T13:39:40.280Z,61.97
2019-01-25T13:42:07.754Z,67.37
2019-01-25T13:44:35.260Z,41.47
2019-01-25T13:47:02.716Z,61.80
2019-01-25T13:49:30.189Z,66.17
2019-01-25T13:51:57.917Z,65.33
2019-01-25T13:54:28.811Z,60.30
2019-01-25T13:56:54.661Z,52.17
2019-01-25T13:59:22.177Z,52.67
2019-01-25T14:01:49.654Z,51.70
2019-01-25T14:04:17.119Z,61.70
2019-01-25T14:06:44.644Z,64.80
2019-01-25T14:09:12.103Z,63.63
2019-01-25T14:11:39.647Z,69.17
2019-01-25T14:14:07.187Z,66.10
2019-01-25T14:16:34.670Z,66.37
2019-01-25T14:19:02.177Z,57.47
2019-01-25T14:21:29.697Z,68.73
2019-01-25T14:23:57.161Z,65.90
2019-01-25T14:26:24.653Z,62.43
2019-01-25T14:28:52.142Z,63.00
2019-01-25T14:31:19.633Z,56.47
2019-01-25T14:33:47.119Z,56.03
2019-01-25T14:36:14.628Z,51.00
2019-01-25T14:38:42.110Z,55.33
2019-01-25T14:41:09.634Z,64.30
2019-01-25T14:43:37.191Z,60.43
2019-01-25T14:46:04.827Z,49.60
2019-01-25T14:48:32.322Z,42.97
2019-01-25T14:50:59.780Z,34.93
2019-01-25T14:53:27.310Z,41.93
2019-01-25T14:55:54.793Z,47.30
2019-01-25T14:58:22.279Z,46.40
2019-01-25T15:00:49.794Z,50.60
2019-01-25T15:03:17.272Z,51.53
2019-01-25T15:05:44.771Z,42.03
2019-01-25T15:08:12.251Z,50.93
2019-01-25T15:10:39.748Z,40.83
2019-01-25T15:13:08.101Z,53.80
2019-01-25T15:15:35.608Z,36.43
2019-01-25T15:18:04.567Z,38.40
2019-01-25T15:20:32.066Z,41.40
2019-01-25T15:22:59.555Z,54.63
2019-01-25T15:25:27.076Z,47.80
2019-01-25T15:27:54.631Z,64.57
2019-01-25T15:30:30.346Z,49.47
2019-01-25T15:32:57.803Z,50.23
2019-01-25T15:35:25.337Z,46.73
2019-01-25T15:37:52.805Z,38.63
2019-01-25T15:40:20.748Z,41.80
2019-01-25T15:42:48.242Z,50.80
2019-01-25T15:45:16.864Z,59.40
2019-01-25T15:47:44.405Z,47.37
2019-01-25T15:50:23.880Z,48.70
2019-01-25T15:52:51.347Z,57.73
2019-01-25T15:55:19.196Z,51.40
2019-01-25T15:57:46.819Z,49.77
2019-01-25T16:00:16.377Z,51.27
2019-01-25T16:02:43.876Z,54.43
2019-01-25T16:05:13.764Z,49.37
2019-01-25T16:07:41.249Z,53.50
2019-01-25T16:10:11.105Z,47.93
2019-01-25T16:12:38.606Z,53.67
2019-01-25T16:15:08.725Z,47.47
2019-01-25T16:17:36.219Z,43.30
2019-01-25T16:20:05.351Z,50.47
2019-01-25T16:22:32.830Z,44.50
2019-01-25T16:25:00.297Z,49.57
2019-01-25T16:27:27.853Z,47.37
2019-01-25T16:29:55.338Z,45.23
2019-01-25T16:32:22.817Z,44.37
2019-01-25T16:34:50.324Z,45.63
2019-01-25T16:37:17.817Z,40.47
2019-01-25T16:39:45.553Z,48.37
2019-01-25T16:42:13.046Z,39.07
2019-01-25T16:44:40.518Z,42.70
2019-01-25T16:47:08.207Z,51.77
2019-01-25T16:49:35.701Z,48.17
2019-01-25T16:52:03.325Z,48.90
2019-01-25T16:54:30.849Z,50.17
2019-01-25T16:56:58.372Z,47.77
2019-01-25T16:59:25.894Z,40.17
2019-01-25T17:01:53.429Z,40.83
2019-01-25T17:04:20.950Z,44.67
2019-01-25T17:06:48.491Z,40.50
2019-01-25T17:09:15.997Z,44.13
2019-01-25T17:11:43.528Z,42.73
2019-01-25T17:14:11.049Z,39.63
2019-01-25T17:16:38.568Z,43.43
2019-01-25T17:19:06.472Z,49.27
2019-01-25T17:21:33.994Z,46.93
2019-01-25T17:24:01.506Z,48.43
2019-01-25T17:26:29.267Z,46.60
2019-01-25T17:28:56.743Z,50.00
2019-01-25T17:31:24.207Z,52.70
2019-01-25T17:33:51.714Z,45.03
2019-01-25T17:36:19.223Z,41.97
2019-01-25T17:38:46.732Z,45.37
2019-01-25T17:41:14.251Z,48.03
2019-01-25T17:43:41.721Z,44.43
2019-01-25T17:46:09.240Z,44.77
2019-01-25T17:48:36.699Z,43.37
2019-01-25T17:51:04.172Z,49.20
2019-01-25T17:53:31.666Z,49.70
2019-01-25T17:55:59.181Z,46.23
2019-01-25T17:58:26.735Z,48.37
2019-01-25T18:00:57.329Z,42.43
2019-01-25T18:03:24.848Z,42.93
2019-01-25T18:05:52.328Z,40.97
2019-01-25T18:08:19.811Z,41.83
2019-01-25T18:10:49.100Z,42.83
2019-01-25T18:13:16.572Z,41.13
2019-01-25T18:15:44.036Z,59.50
2019-01-25T18:18:11.643Z,41.63
2019-01-25T18:20:39.224Z,41.97
2019-01-25T19:03:56.472Z,48.27
2019-01-25T19:06:23.994Z,44.03
2019-01-25T19:08:51.894Z,50.50
2019-01-25T19:11:19.371Z,53.27
2019-01-25T19:13:48.774Z,58.53
2019-01-25T19:16:16.466Z,47.40
2019-01-25T19:18:44.304Z,43.93
2019-01-25T19:21:14.904Z,44.33
2019-01-25T19:23:42.404Z,48.70
2019-01-25T19:26:11.109Z,45.37
2019-01-25T19:28:38.687Z,49.23
2019-01-25T19:31:06.257Z,48.10
2019-01-25T19:33:33.805Z,49.90
2019-01-25T19:36:02.639Z,47.33
2019-01-25T19:38:43.866Z,46.90
2019-01-25T19:41:11.392Z,48.00
2019-01-25T19:43:41.625Z,47.23
2019-01-25T19:50:00.571Z,38.93
2019-01-25T19:53:47.386Z,41.50
2019-01-25T19:56:16.876Z,42.97
2019-01-25T19:58:48.739Z,42.90
2019-01-25T20:01:33.347Z,43.00
2019-01-25T20:08:31.151Z,43.73
2019-01-25T20:11:10.464Z,46.13
2019-01-25T20:13:29.271Z,43.13
2019-01-25T20:15:56.956Z,41.03
2019-01-25T20:18:24.720Z,38.73
2019-01-25T20:20:55.281Z,37.23
2019-01-25T20:23:24.449Z,43.67
2019-01-25T20:52:27.338Z,40.50
2019-01-25T20:54:54.939Z,36.83
2019-01-25T20:57:35.032Z,46.17
2019-01-25T21:52:57.863Z,23.63
2019-01-25T21:55:25.457Z,24.60
2019-01-25T21:57:53.065Z,26.07
2019-01-25T22:00:22.932Z,28.87
2019-01-25T22:02:53.610Z,30.10
2019-01-25T22:05:21.265Z,25.20
2019-01-25T22:07:51.613Z,24.13
2019-01-25T22:10:33.686Z,27.63
2019-01-25T22:13:01.388Z,23.13
2019-01-25T22:15:29.044Z,18.23
2019-01-25T22:17:58.907Z,21.03
2019-01-25T22:20:27.118Z,23.50
2019-01-25T22:22:57.861Z,21.80
2019-01-25T22:25:25.799Z,20.60
2019-01-25T22:27:54.914Z,21.17
2019-01-25T22:30:24.846Z,17.50
2019-01-25T22:32:52.489Z,18.73
2019-01-25T22:35:20.236Z,19.13
2019-01-25T22:37:47.755Z,18.47
2019-01-25T22:40:17.659Z,19.37
2019-01-25T22:42:45.200Z,23.33
2019-01-25T22:45:14.871Z,18.90
2019-01-25T22:47:42.536Z,15.80
2019-01-25T22:50:13.432Z,21.23
2019-01-25T22:52:41.023Z,18.33
2019-01-25T22:55:10.160Z,18.90
2019-01-25T22:57:37.801Z,12.13
2019-01-25T23:00:15.769Z,16.73
2019-01-25T23:02:43.369Z,19.60
2019-01-25T23:05:48.479Z,18.50
2019-01-25T23:08:15.944Z,17.27
2019-01-25T23:10:43.440Z,20.00
2019-01-25T23:13:10.951Z,18.67
2019-01-25T23:15:38.465Z,18.07
2019-01-25T23:18:05.925Z,17.47
2019-01-25T23:20:33.461Z,15.67
2019-01-25T23:23:00.949Z,18.37
2019-01-25T23:25:28.418Z,19.23
2019-01-25T23:27:55.986Z,18.77
2019-01-25T23:30:23.463Z,19.50
2019-01-25T23:32:50.976Z,20.80
2019-01-25T23:35:18.488Z,17.00
2019-01-25T23:37:46.062Z,17.93
2019-01-25T23:40:14.561Z,18.67
2019-01-25T23:42:42.020Z,18.27
2019-01-25T23:45:10.885Z,18.10
2019-01-25T23:47:38.351Z,21.90
2019-01-25T23:50:08.111Z,18.03
2019-01-25T23:52:35.587Z,21.13
2019-01-25T23:55:03.612Z,21.83
2019-01-25T23:57:31.319Z,18.00
2019-01-25T23:59:58.780Z,18.20
